sensor_id;sensor_type;location;lat;lon;timestamp;temperature;humidity
32334;DHT22;18810;53.040;8.850;2023-12-07T00:03:43;2.10;99.90
32334;DHT22;18810;53.040;8.850;2023-12-07T00:08:34;2.10;99.90
32334;DHT22;18810;53.040;8.850;2023-12-07T00:11:00;2.10;99.90
32334;DHT22;18810;53.040;8.850;2023-12-07T00:13:26;2.10;99.90
32334;DHT22;18810;53.040;8.850;2023-12-07T00:15:52;2.10;99.90
32334;DHT22;18810;53.040;8.850;2023-12-07T00:18:18;2.10;99.90
32334;DHT22;18810;53.040;8.850;2023-12-07T00:20:43;2.10;99.90
32334;DHT22;18810;53.040;8.850;2023-12-07T00:23:09;2.10;99.90
32334;DHT22;18810;53.040;8.850;2023-12-07T00:25:35;2.10;99.90
32334;DHT22;18810;53.040;8.850;2023-12-07T00:28:00;2.10;99.90
32334;DHT22;18810;53.040;8.850;2023-12-07T00:30:26;2.10;99.90
32334;DHT22;18810;53.040;8.850;2023-12-07T00:32:54;2.10;99.90
32334;DHT22;18810;53.040;8.850;2023-12-07T00:35:21;2.10;99.90
32334;DHT22;18810;53.040;8.850;2023-12-07T00:37:48;2.00;99.90
32334;DHT22;18810;53.040;8.850;2023-12-07T00:40:16;2.10;99.90
32334;DHT22;18810;53.040;8.850;2023-12-07T00:42:42;2.10;99.90
32334;DHT22;18810;53.040;8.850;2023-12-07T00:45:08;2.10;99.90
32334;DHT22;18810;53.040;8.850;2023-12-07T00:47:34;2.20;99.90
32334;DHT22;18810;53.040;8.850;2023-12-07T00:50:00;2.10;99.90
32334;DHT22;18810;53.040;8.850;2023-12-07T00:52:25;2.10;99.90
32334;DHT22;18810;53.040;8.850;2023-12-07T00:54:51;2.10;99.90
32334;DHT22;18810;53.040;8.850;2023-12-07T00:57:17;2.10;99.90
32334;DHT22;18810;53.040;8.850;2023-12-07T00:59:43;2.10;99.90
32334;DHT22;18810;53.040;8.850;2023-12-07T01:02:08;2.10;99.90
32334;DHT22;18810;53.040;8.850;2023-12-07T01:04:34;2.10;99.90
32334;DHT22;18810;53.040;8.850;2023-12-07T01:07:00;2.10;99.90
32334;DHT22;18810;53.040;8.850;2023-12-07T01:09:26;2.10;99.90
32334;DHT22;18810;53.040;8.850;2023-12-07T01:11:52;2.10;99.90
32334;DHT22;18810;53.040;8.850;2023-12-07T01:14:18;2.10;99.90
32334;DHT22;18810;53.040;8.850;2023-12-07T01:16:44;2.10;99.90
32334;DHT22;18810;53.040;8.850;2023-12-07T01:19:10;2.10;99.90
32334;DHT22;18810;53.040;8.850;2023-12-07T01:21:40;2.10;99.90
32334;DHT22;18810;53.040;8.850;2023-12-07T01:24:07;2.10;99.90
32334;DHT22;18810;53.040;8.850;2023-12-07T01:26:32;2.10;99.90
32334;DHT22;18810;53.040;8.850;2023-12-07T01:28:58;2.10;99.90
32334;DHT22;18810;53.040;8.850;2023-12-07T01:31:24;2.10;99.90
32334;DHT22;18810;53.040;8.850;2023-12-07T01:33:49;2.10;99.90
32334;DHT22;18810;53.040;8.850;2023-12-07T01:36:15;2.10;99.90
32334;DHT22;18810;53.040;8.850;2023-12-07T01:38:41;2.10;99.90
32334;DHT22;18810;53.040;8.850;2023-12-07T01:41:09;2.10;99.90
32334;DHT22;18810;53.040;8.850;2023-12-07T01:43:34;2.00;99.90
32334;DHT22;18810;53.040;8.850;2023-12-07T01:46:00;2.10;99.90
32334;DHT22;18810;53.040;8.850;2023-12-07T01:48:27;2.10;99.90
32334;DHT22;18810;53.040;8.850;2023-12-07T01:50:55;2.10;99.90
32334;DHT22;18810;53.040;8.850;2023-12-07T01:53:22;2.10;99.90
32334;DHT22;18810;53.040;8.850;2023-12-07T01:55:49;2.10;99.90
32334;DHT22;18810;53.040;8.850;2023-12-07T01:58:17;2.20;99.90
32334;DHT22;18810;53.040;8.850;2023-12-07T02:00:43;2.20;99.90
32334;DHT22;18810;53.040;8.850;2023-12-07T02:03:09;2.20;99.90
32334;DHT22;18810;53.040;8.850;2023-12-07T02:05:37;2.20;99.90
32334;DHT22;18810;53.040;8.850;2023-12-07T02:08:03;2.10;99.90
32334;DHT22;18810;53.040;8.850;2023-12-07T02:10:30;2.10;99.90
32334;DHT22;18810;53.040;8.850;2023-12-07T02:12:56;2.20;99.90
32334;DHT22;18810;53.040;8.850;2023-12-07T02:15:21;2.20;99.90
32334;DHT22;18810;53.040;8.850;2023-12-07T02:20:45;2.30;99.90
32334;DHT22;18810;53.040;8.850;2023-12-07T02:23:17;2.20;99.90
32334;DHT22;18810;53.040;8.850;2023-12-07T02:28:12;2.20;99.90
32334;DHT22;18810;53.040;8.850;2023-12-07T02:30:37;2.20;99.90
32334;DHT22;18810;53.040;8.850;2023-12-07T02:33:03;2.20;99.90
32334;DHT22;18810;53.040;8.850;2023-12-07T02:35:30;2.20;99.90
32334;DHT22;18810;53.040;8.850;2023-12-07T02:37:57;2.30;99.90
32334;DHT22;18810;53.040;8.850;2023-12-07T02:40:25;2.20;99.90
32334;DHT22;18810;53.040;8.850;2023-12-07T02:42:55;2.20;99.90
32334;DHT22;18810;53.040;8.850;2023-12-07T02:45:22;2.20;99.90
32334;DHT22;18810;53.040;8.850;2023-12-07T02:47:48;2.30;99.90
32334;DHT22;18810;53.040;8.850;2023-12-07T02:50:14;2.20;99.90
32334;DHT22;18810;53.040;8.850;2023-12-07T02:52:39;2.30;99.90
32334;DHT22;18810;53.040;8.850;2023-12-07T02:55:06;2.30;99.90
32334;DHT22;18810;53.040;8.850;2023-12-07T02:57:31;2.30;99.90
32334;DHT22;18810;53.040;8.850;2023-12-07T03:00:00;2.20;99.90
32334;DHT22;18810;53.040;8.850;2023-12-07T03:02:26;2.20;99.90
32334;DHT22;18810;53.040;8.850;2023-12-07T03:04:52;2.20;99.90
32334;DHT22;18810;53.040;8.850;2023-12-07T03:07:18;2.20;99.90
32334;DHT22;18810;53.040;8.850;2023-12-07T03:09:43;2.20;99.90
32334;DHT22;18810;53.040;8.850;2023-12-07T03:12:09;2.20;99.90
32334;DHT22;18810;53.040;8.850;2023-12-07T03:14:35;2.20;99.90
32334;DHT22;18810;53.040;8.850;2023-12-07T03:17:00;2.20;99.90
32334;DHT22;18810;53.040;8.850;2023-12-07T03:19:26;2.30;99.90
32334;DHT22;18810;53.040;8.850;2023-12-07T03:21:52;2.40;99.90
32334;DHT22;18810;53.040;8.850;2023-12-07T03:24:18;2.40;99.90
32334;DHT22;18810;53.040;8.850;2023-12-07T03:29:10;2.20;99.90
32334;DHT22;18810;53.040;8.850;2023-12-07T03:31:35;2.20;99.90
32334;DHT22;18810;53.040;8.850;2023-12-07T03:34:01;2.20;99.90
32334;DHT22;18810;53.040;8.850;2023-12-07T03:36:27;2.20;99.90
32334;DHT22;18810;53.040;8.850;2023-12-07T03:38:53;2.30;99.90
32334;DHT22;18810;53.040;8.850;2023-12-07T03:41:19;2.30;99.90
32334;DHT22;18810;53.040;8.850;2023-12-07T03:43:44;2.10;99.90
32334;DHT22;18810;53.040;8.850;2023-12-07T03:46:10;2.20;99.90
32334;DHT22;18810;53.040;8.850;2023-12-07T03:51:02;2.30;99.90
32334;DHT22;18810;53.040;8.850;2023-12-07T03:53:28;2.30;99.90
32334;DHT22;18810;53.040;8.850;2023-12-07T03:55:55;2.20;99.90
32334;DHT22;18810;53.040;8.850;2023-12-07T03:58:20;2.30;99.90
32334;DHT22;18810;53.040;8.850;2023-12-07T04:00:46;2.30;99.90
32334;DHT22;18810;53.040;8.850;2023-12-07T04:03:12;2.40;99.90
32334;DHT22;18810;53.040;8.850;2023-12-07T04:05:38;2.30;99.90
32334;DHT22;18810;53.040;8.850;2023-12-07T04:08:03;2.40;99.90
32334;DHT22;18810;53.040;8.850;2023-12-07T04:10:31;2.30;99.90
32334;DHT22;18810;53.040;8.850;2023-12-07T04:12:57;2.30;99.90
32334;DHT22;18810;53.040;8.850;2023-12-07T04:15:22;2.80;99.90
32334;DHT22;18810;53.040;8.850;2023-12-07T04:17:49;2.20;99.90
32334;DHT22;18810;53.040;8.850;2023-12-07T04:20:15;2.20;99.90
32334;DHT22;18810;53.040;8.850;2023-12-07T04:22:41;2.30;99.90
32334;DHT22;18810;53.040;8.850;2023-12-07T04:25:07;2.30;99.90
32334;DHT22;18810;53.040;8.850;2023-12-07T04:27:33;2.30;99.90
32334;DHT22;18810;53.040;8.850;2023-12-07T04:29:59;2.30;99.90
32334;DHT22;18810;53.040;8.850;2023-12-07T04:32:25;2.30;99.90
32334;DHT22;18810;53.040;8.850;2023-12-07T04:34:51;2.40;99.90
32334;DHT22;18810;53.040;8.850;2023-12-07T04:37:17;2.40;99.90
32334;DHT22;18810;53.040;8.850;2023-12-07T04:42:09;2.30;99.90
32334;DHT22;18810;53.040;8.850;2023-12-07T04:44:35;2.30;99.90
32334;DHT22;18810;53.040;8.850;2023-12-07T04:47:00;2.30;99.90
32334;DHT22;18810;53.040;8.850;2023-12-07T04:49:26;2.30;99.90
32334;DHT22;18810;53.040;8.850;2023-12-07T04:51:52;2.30;99.90
32334;DHT22;18810;53.040;8.850;2023-12-07T04:54:18;2.30;99.90
32334;DHT22;18810;53.040;8.850;2023-12-07T04:56:45;2.40;99.90
32334;DHT22;18810;53.040;8.850;2023-12-07T04:59:10;2.50;99.90
32334;DHT22;18810;53.040;8.850;2023-12-07T05:01:36;2.40;99.90
32334;DHT22;18810;53.040;8.850;2023-12-07T05:04:03;2.40;99.90
32334;DHT22;18810;53.040;8.850;2023-12-07T05:06:30;2.40;99.90
32334;DHT22;18810;53.040;8.850;2023-12-07T05:08:56;2.30;99.90
32334;DHT22;18810;53.040;8.850;2023-12-07T05:11:21;2.30;99.90
32334;DHT22;18810;53.040;8.850;2023-12-07T05:16:13;2.30;99.90
32334;DHT22;18810;53.040;8.850;2023-12-07T05:18:39;2.40;99.90
32334;DHT22;18810;53.040;8.850;2023-12-07T05:21:05;2.50;99.90
32334;DHT22;18810;53.040;8.850;2023-12-07T05:25:57;2.10;99.90
32334;DHT22;18810;53.040;8.850;2023-12-07T05:28:22;2.30;99.90
32334;DHT22;18810;53.040;8.850;2023-12-07T05:30:48;2.20;99.90
32334;DHT22;18810;53.040;8.850;2023-12-07T05:33:15;2.20;99.90
32334;DHT22;18810;53.040;8.850;2023-12-07T05:35:41;2.30;99.90
32334;DHT22;18810;53.040;8.850;2023-12-07T05:38:07;2.30;99.90
32334;DHT22;18810;53.040;8.850;2023-12-07T05:40:32;2.30;99.90
32334;DHT22;18810;53.040;8.850;2023-12-07T05:42:59;2.20;99.90
32334;DHT22;18810;53.040;8.850;2023-12-07T05:45:25;2.20;99.90
32334;DHT22;18810;53.040;8.850;2023-12-07T05:47:51;2.10;99.90
32334;DHT22;18810;53.040;8.850;2023-12-07T05:50:17;2.10;99.90
32334;DHT22;18810;53.040;8.850;2023-12-07T05:52:43;2.20;99.90
32334;DHT22;18810;53.040;8.850;2023-12-07T05:55:09;2.20;99.90
32334;DHT22;18810;53.040;8.850;2023-12-07T05:57:35;2.20;99.90
32334;DHT22;18810;53.040;8.850;2023-12-07T06:00:01;2.30;99.90
32334;DHT22;18810;53.040;8.850;2023-12-07T06:04:53;2.30;99.90
32334;DHT22;18810;53.040;8.850;2023-12-07T06:07:19;2.30;99.90
32334;DHT22;18810;53.040;8.850;2023-12-07T06:09:44;2.20;99.90
32334;DHT22;18810;53.040;8.850;2023-12-07T06:12:10;2.20;99.90
32334;DHT22;18810;53.040;8.850;2023-12-07T06:14:36;2.20;99.90
32334;DHT22;18810;53.040;8.850;2023-12-07T06:17:02;2.20;99.90
32334;DHT22;18810;53.040;8.850;2023-12-07T06:19:28;2.20;99.90
32334;DHT22;18810;53.040;8.850;2023-12-07T06:21:54;2.20;99.90
32334;DHT22;18810;53.040;8.850;2023-12-07T06:24:20;2.20;99.90
32334;DHT22;18810;53.040;8.850;2023-12-07T06:26:48;2.20;99.90
32334;DHT22;18810;53.040;8.850;2023-12-07T06:29:14;2.20;99.90
32334;DHT22;18810;53.040;8.850;2023-12-07T06:31:43;2.20;99.90
32334;DHT22;18810;53.040;8.850;2023-12-07T06:34:09;2.20;99.90
32334;DHT22;18810;53.040;8.850;2023-12-07T06:36:35;2.20;99.90
32334;DHT22;18810;53.040;8.850;2023-12-07T06:39:02;2.20;99.90
32334;DHT22;18810;53.040;8.850;2023-12-07T06:41:28;2.10;99.90
32334;DHT22;18810;53.040;8.850;2023-12-07T06:43:54;2.20;99.90
32334;DHT22;18810;53.040;8.850;2023-12-07T06:46:20;2.20;99.90
32334;DHT22;18810;53.040;8.850;2023-12-07T06:48:46;2.20;99.90
32334;DHT22;18810;53.040;8.850;2023-12-07T06:51:12;2.20;99.90
32334;DHT22;18810;53.040;8.850;2023-12-07T06:53:41;2.20;99.90
32334;DHT22;18810;53.040;8.850;2023-12-07T06:56:07;2.20;99.90
32334;DHT22;18810;53.040;8.850;2023-12-07T06:58:33;2.20;99.90
32334;DHT22;18810;53.040;8.850;2023-12-07T07:00:59;2.20;99.90
32334;DHT22;18810;53.040;8.850;2023-12-07T07:03:25;2.20;99.90
32334;DHT22;18810;53.040;8.850;2023-12-07T07:05:53;2.20;99.90
32334;DHT22;18810;53.040;8.850;2023-12-07T07:08:19;2.30;99.90
32334;DHT22;18810;53.040;8.850;2023-12-07T07:10:45;2.30;99.90
32334;DHT22;18810;53.040;8.850;2023-12-07T07:13:13;2.30;99.90
32334;DHT22;18810;53.040;8.850;2023-12-07T07:15:42;2.20;99.90
32334;DHT22;18810;53.040;8.850;2023-12-07T07:18:11;2.30;99.90
32334;DHT22;18810;53.040;8.850;2023-12-07T07:20:37;2.40;99.90
32334;DHT22;18810;53.040;8.850;2023-12-07T07:23:03;2.30;99.90
32334;DHT22;18810;53.040;8.850;2023-12-07T07:25:28;2.20;99.90
32334;DHT22;18810;53.040;8.850;2023-12-07T07:27:54;2.20;99.90
32334;DHT22;18810;53.040;8.850;2023-12-07T07:30:21;2.30;99.90
32334;DHT22;18810;53.040;8.850;2023-12-07T07:32:46;2.30;99.90
32334;DHT22;18810;53.040;8.850;2023-12-07T07:35:12;2.30;99.90
32334;DHT22;18810;53.040;8.850;2023-12-07T07:37:38;2.30;99.90
32334;DHT22;18810;53.040;8.850;2023-12-07T07:40:08;2.30;99.90
32334;DHT22;18810;53.040;8.850;2023-12-07T07:42:37;2.20;99.90
32334;DHT22;18810;53.040;8.850;2023-12-07T07:45:05;2.20;99.90
32334;DHT22;18810;53.040;8.850;2023-12-07T07:47:31;2.20;99.90
32334;DHT22;18810;53.040;8.850;2023-12-07T07:49:57;2.30;99.90
32334;DHT22;18810;53.040;8.850;2023-12-07T07:52:24;2.40;99.90
32334;DHT22;18810;53.040;8.850;2023-12-07T07:57:16;2.40;99.90
32334;DHT22;18810;53.040;8.850;2023-12-07T07:59:41;2.40;99.90
32334;DHT22;18810;53.040;8.850;2023-12-07T08:02:07;2.50;99.90
32334;DHT22;18810;53.040;8.850;2023-12-07T08:04:33;2.50;99.90
32334;DHT22;18810;53.040;8.850;2023-12-07T08:06:59;2.40;99.90
32334;DHT22;18810;53.040;8.850;2023-12-07T08:09:24;2.40;99.90
32334;DHT22;18810;53.040;8.850;2023-12-07T08:11:51;2.40;99.90
32334;DHT22;18810;53.040;8.850;2023-12-07T08:14:17;2.40;99.90
32334;DHT22;18810;53.040;8.850;2023-12-07T08:16:44;2.40;99.90
32334;DHT22;18810;53.040;8.850;2023-12-07T08:19:12;2.40;99.90
32334;DHT22;18810;53.040;8.850;2023-12-07T08:21:38;2.40;99.90
32334;DHT22;18810;53.040;8.850;2023-12-07T08:24:04;2.50;99.90
32334;DHT22;18810;53.040;8.850;2023-12-07T08:26:31;2.50;99.90
32334;DHT22;18810;53.040;8.850;2023-12-07T08:28:57;2.60;99.90
32334;DHT22;18810;53.040;8.850;2023-12-07T08:31:23;2.70;99.90
32334;DHT22;18810;53.040;8.850;2023-12-07T08:33:51;2.60;99.90
32334;DHT22;18810;53.040;8.850;2023-12-07T08:36:16;2.60;99.90
32334;DHT22;18810;53.040;8.850;2023-12-07T08:38:42;2.60;99.90
32334;DHT22;18810;53.040;8.850;2023-12-07T08:41:08;2.60;99.90
32334;DHT22;18810;53.040;8.850;2023-12-07T08:43:34;2.50;99.90
32334;DHT22;18810;53.040;8.850;2023-12-07T08:45:59;2.60;99.90
32334;DHT22;18810;53.040;8.850;2023-12-07T08:48:25;2.70;99.90
32334;DHT22;18810;53.040;8.850;2023-12-07T08:50:51;2.60;99.90
32334;DHT22;18810;53.040;8.850;2023-12-07T08:53:17;2.60;99.90
32334;DHT22;18810;53.040;8.850;2023-12-07T08:55:43;2.70;99.90
32334;DHT22;18810;53.040;8.850;2023-12-07T08:58:08;2.70;99.90
32334;DHT22;18810;53.040;8.850;2023-12-07T09:00:36;2.60;99.90
32334;DHT22;18810;53.040;8.850;2023-12-07T09:03:01;2.50;99.90
32334;DHT22;18810;53.040;8.850;2023-12-07T09:05:28;2.50;99.90
32334;DHT22;18810;53.040;8.850;2023-12-07T09:07:53;2.60;99.90
32334;DHT22;18810;53.040;8.850;2023-12-07T09:10:19;2.60;99.90
32334;DHT22;18810;53.040;8.850;2023-12-07T09:12:45;2.60;99.90
32334;DHT22;18810;53.040;8.850;2023-12-07T09:15:11;2.60;99.90
32334;DHT22;18810;53.040;8.850;2023-12-07T09:17:48;2.70;99.90
32334;DHT22;18810;53.040;8.850;2023-12-07T09:20:23;2.60;99.90
32334;DHT22;18810;53.040;8.850;2023-12-07T09:22:50;2.60;99.90
32334;DHT22;18810;53.040;8.850;2023-12-07T09:25:16;2.50;99.90
32334;DHT22;18810;53.040;8.850;2023-12-07T09:27:42;2.70;99.90
32334;DHT22;18810;53.040;8.850;2023-12-07T09:30:09;2.70;99.90
32334;DHT22;18810;53.040;8.850;2023-12-07T09:32:39;2.70;99.90
32334;DHT22;18810;53.040;8.850;2023-12-07T09:35:05;2.70;99.90
32334;DHT22;18810;53.040;8.850;2023-12-07T09:37:44;2.70;99.90
32334;DHT22;18810;53.040;8.850;2023-12-07T09:42:46;2.70;99.90
32334;DHT22;18810;53.040;8.850;2023-12-07T09:45:12;2.70;99.90
32334;DHT22;18810;53.040;8.850;2023-12-07T09:47:40;2.80;99.90
32334;DHT22;18810;53.040;8.850;2023-12-07T09:50:08;2.80;99.90
32334;DHT22;18810;53.040;8.850;2023-12-07T09:52:35;2.90;99.90
32334;DHT22;18810;53.040;8.850;2023-12-07T09:55:02;2.90;99.90
32334;DHT22;18810;53.040;8.850;2023-12-07T09:57:29;3.00;99.90
32334;DHT22;18810;53.040;8.850;2023-12-07T09:59:58;3.00;99.90
32334;DHT22;18810;53.040;8.850;2023-12-07T10:02:24;2.90;99.90
32334;DHT22;18810;53.040;8.850;2023-12-07T10:05:07;3.00;99.90
32334;DHT22;18810;53.040;8.850;2023-12-07T10:07:39;2.90;99.90
32334;DHT22;18810;53.040;8.850;2023-12-07T10:10:05;3.00;99.90
32334;DHT22;18810;53.040;8.850;2023-12-07T10:12:32;3.00;99.90
32334;DHT22;18810;53.040;8.850;2023-12-07T10:15:22;2.90;99.90
32334;DHT22;18810;53.040;8.850;2023-12-07T10:17:49;3.00;99.90
32334;DHT22;18810;53.040;8.850;2023-12-07T10:20:19;3.00;99.90
32334;DHT22;18810;53.040;8.850;2023-12-07T10:23:00;3.00;99.90
32334;DHT22;18810;53.040;8.850;2023-12-07T10:25:28;3.00;99.90
32334;DHT22;18810;53.040;8.850;2023-12-07T10:27:54;3.00;99.90
32334;DHT22;18810;53.040;8.850;2023-12-07T10:30:21;3.10;99.90
32334;DHT22;18810;53.040;8.850;2023-12-07T10:32:51;3.10;99.90
32334;DHT22;18810;53.040;8.850;2023-12-07T10:35:18;3.20;99.90
32334;DHT22;18810;53.040;8.850;2023-12-07T10:37:44;3.20;99.90
32334;DHT22;18810;53.040;8.850;2023-12-07T10:40:11;3.10;99.90
32334;DHT22;18810;53.040;8.850;2023-12-07T10:42:37;3.20;99.90
32334;DHT22;18810;53.040;8.850;2023-12-07T10:45:06;3.30;99.90
32334;DHT22;18810;53.040;8.850;2023-12-07T10:47:36;3.40;99.90
32334;DHT22;18810;53.040;8.850;2023-12-07T10:50:06;3.40;99.90
32334;DHT22;18810;53.040;8.850;2023-12-07T10:53:27;3.50;99.90
32334;DHT22;18810;53.040;8.850;2023-12-07T10:55:45;3.50;99.90
32334;DHT22;18810;53.040;8.850;2023-12-07T10:58:14;3.60;99.90
32334;DHT22;18810;53.040;8.850;2023-12-07T11:00:42;3.60;99.90
32334;DHT22;18810;53.040;8.850;2023-12-07T11:03:16;3.50;99.90
32334;DHT22;18810;53.040;8.850;2023-12-07T11:05:47;3.60;99.90
32334;DHT22;18810;53.040;8.850;2023-12-07T11:08:40;3.60;99.90
32334;DHT22;18810;53.040;8.850;2023-12-07T11:13:59;3.60;99.90
32334;DHT22;18810;53.040;8.850;2023-12-07T11:16:35;3.60;99.90
32334;DHT22;18810;53.040;8.850;2023-12-07T11:19:00;3.70;99.90
32334;DHT22;18810;53.040;8.850;2023-12-07T11:21:26;3.80;99.90
32334;DHT22;18810;53.040;8.850;2023-12-07T11:23:53;3.80;99.90
32334;DHT22;18810;53.040;8.850;2023-12-07T11:26:23;3.90;99.90
32334;DHT22;18810;53.040;8.850;2023-12-07T11:28:49;3.90;99.90
32334;DHT22;18810;53.040;8.850;2023-12-07T11:31:16;3.90;99.90
32334;DHT22;18810;53.040;8.850;2023-12-07T11:33:42;3.80;99.90
32334;DHT22;18810;53.040;8.850;2023-12-07T11:36:11;4.00;99.90
32334;DHT22;18810;53.040;8.850;2023-12-07T11:38:38;4.10;99.90
32334;DHT22;18810;53.040;8.850;2023-12-07T11:41:20;4.20;99.90
32334;DHT22;18810;53.040;8.850;2023-12-07T11:43:46;3.90;99.90
32334;DHT22;18810;53.040;8.850;2023-12-07T11:46:12;3.90;99.90
32334;DHT22;18810;53.040;8.850;2023-12-07T11:48:39;4.00;99.90
32334;DHT22;18810;53.040;8.850;2023-12-07T11:51:06;3.90;99.90
32334;DHT22;18810;53.040;8.850;2023-12-07T11:53:36;4.00;99.90
32334;DHT22;18810;53.040;8.850;2023-12-07T11:56:03;4.10;99.90
32334;DHT22;18810;53.040;8.850;2023-12-07T11:58:31;4.10;99.90
32334;DHT22;18810;53.040;8.850;2023-12-07T12:00:57;4.20;99.90
32334;DHT22;18810;53.040;8.850;2023-12-07T12:03:24;4.30;99.90
32334;DHT22;18810;53.040;8.850;2023-12-07T12:05:50;4.30;99.90
32334;DHT22;18810;53.040;8.850;2023-12-07T12:08:17;4.40;99.90
32334;DHT22;18810;53.040;8.850;2023-12-07T12:10:43;4.30;99.90
32334;DHT22;18810;53.040;8.850;2023-12-07T12:13:10;4.30;99.90
32334;DHT22;18810;53.040;8.850;2023-12-07T12:15:37;4.20;99.90
32334;DHT22;18810;53.040;8.850;2023-12-07T12:18:03;4.20;99.90
32334;DHT22;18810;53.040;8.850;2023-12-07T12:20:29;4.10;99.90
32334;DHT22;18810;53.040;8.850;2023-12-07T12:22:55;4.10;99.90
32334;DHT22;18810;53.040;8.850;2023-12-07T12:25:25;4.10;99.90
32334;DHT22;18810;53.040;8.850;2023-12-07T12:27:59;4.00;99.90
32334;DHT22;18810;53.040;8.850;2023-12-07T12:30:28;4.10;99.90
32334;DHT22;18810;53.040;8.850;2023-12-07T12:32:55;4.10;99.90
32334;DHT22;18810;53.040;8.850;2023-12-07T12:35:21;4.20;99.90
32334;DHT22;18810;53.040;8.850;2023-12-07T12:37:48;4.10;99.90
32334;DHT22;18810;53.040;8.850;2023-12-07T12:40:18;4.10;99.90
32334;DHT22;18810;53.040;8.850;2023-12-07T12:42:49;4.10;99.90
32334;DHT22;18810;53.040;8.850;2023-12-07T12:45:16;4.20;99.90
32334;DHT22;18810;53.040;8.850;2023-12-07T12:47:42;4.20;99.90
32334;DHT22;18810;53.040;8.850;2023-12-07T12:50:12;4.10;99.90
32334;DHT22;18810;53.040;8.850;2023-12-07T12:52:41;4.10;99.90
32334;DHT22;18810;53.040;8.850;2023-12-07T12:55:10;4.10;99.90
32334;DHT22;18810;53.040;8.850;2023-12-07T12:57:37;4.30;99.90
32334;DHT22;18810;53.040;8.850;2023-12-07T13:00:04;4.30;99.90
32334;DHT22;18810;53.040;8.850;2023-12-07T13:02:32;4.30;99.90
32334;DHT22;18810;53.040;8.850;2023-12-07T13:04:58;4.30;99.90
32334;DHT22;18810;53.040;8.850;2023-12-07T13:07:24;4.30;99.90
32334;DHT22;18810;53.040;8.850;2023-12-07T13:09:50;4.20;99.90
32334;DHT22;18810;53.040;8.850;2023-12-07T13:12:16;4.30;99.90
32334;DHT22;18810;53.040;8.850;2023-12-07T13:14:42;4.30;99.90
32334;DHT22;18810;53.040;8.850;2023-12-07T13:17:07;4.30;99.90
32334;DHT22;18810;53.040;8.850;2023-12-07T13:19:33;4.30;99.90
32334;DHT22;18810;53.040;8.850;2023-12-07T13:22:00;4.40;99.90
32334;DHT22;18810;53.040;8.850;2023-12-07T13:24:26;4.40;99.90
32334;DHT22;18810;53.040;8.850;2023-12-07T13:26:52;4.30;99.90
32334;DHT22;18810;53.040;8.850;2023-12-07T13:29:17;4.30;99.90
32334;DHT22;18810;53.040;8.850;2023-12-07T13:31:43;4.30;99.90
32334;DHT22;18810;53.040;8.850;2023-12-07T13:34:09;4.40;99.90
32334;DHT22;18810;53.040;8.850;2023-12-07T13:36:34;4.30;99.90
32334;DHT22;18810;53.040;8.850;2023-12-07T13:39:01;4.40;99.90
32334;DHT22;18810;53.040;8.850;2023-12-07T13:41:30;4.40;99.90
32334;DHT22;18810;53.040;8.850;2023-12-07T13:43:55;4.40;99.90
32334;DHT22;18810;53.040;8.850;2023-12-07T13:46:21;4.40;99.90
32334;DHT22;18810;53.040;8.850;2023-12-07T13:48:47;4.40;99.90
32334;DHT22;18810;53.040;8.850;2023-12-07T13:51:13;4.20;99.90
32334;DHT22;18810;53.040;8.850;2023-12-07T13:53:39;4.40;99.90
32334;DHT22;18810;53.040;8.850;2023-12-07T13:56:05;4.40;99.90
32334;DHT22;18810;53.040;8.850;2023-12-07T13:58:32;4.50;99.90
32334;DHT22;18810;53.040;8.850;2023-12-07T14:00:57;4.60;99.90
32334;DHT22;18810;53.040;8.850;2023-12-07T14:03:23;4.60;99.90
32334;DHT22;18810;53.040;8.850;2023-12-07T14:05:49;4.80;99.90
32334;DHT22;18810;53.040;8.850;2023-12-07T14:08:15;4.80;99.90
32334;DHT22;18810;53.040;8.850;2023-12-07T14:10:41;4.90;99.90
32334;DHT22;18810;53.040;8.850;2023-12-07T14:13:06;4.70;99.90
32334;DHT22;18810;53.040;8.850;2023-12-07T14:15:33;4.70;99.90
32334;DHT22;18810;53.040;8.850;2023-12-07T14:18:01;4.60;99.90
32334;DHT22;18810;53.040;8.850;2023-12-07T14:20:28;4.50;99.90
32334;DHT22;18810;53.040;8.850;2023-12-07T14:22:54;4.30;99.90
32334;DHT22;18810;53.040;8.850;2023-12-07T14:25:20;4.30;99.90
32334;DHT22;18810;53.040;8.850;2023-12-07T14:27:46;4.20;99.90
32334;DHT22;18810;53.040;8.850;2023-12-07T14:30:12;4.00;99.90
32334;DHT22;18810;53.040;8.850;2023-12-07T14:32:38;4.00;99.90
32334;DHT22;18810;53.040;8.850;2023-12-07T14:35:07;3.90;99.90
32334;DHT22;18810;53.040;8.850;2023-12-07T14:37:32;3.70;99.90
32334;DHT22;18810;53.040;8.850;2023-12-07T14:39:58;3.70;99.90
32334;DHT22;18810;53.040;8.850;2023-12-07T14:42:24;3.60;99.90
32334;DHT22;18810;53.040;8.850;2023-12-07T14:44:49;3.50;99.90
32334;DHT22;18810;53.040;8.850;2023-12-07T14:47:15;3.50;99.90
32334;DHT22;18810;53.040;8.850;2023-12-07T14:49:41;3.50;99.90
32334;DHT22;18810;53.040;8.850;2023-12-07T14:52:07;3.50;99.90
32334;DHT22;18810;53.040;8.850;2023-12-07T14:54:32;3.40;99.90
32334;DHT22;18810;53.040;8.850;2023-12-07T14:57:01;3.50;99.90
32334;DHT22;18810;53.040;8.850;2023-12-07T14:59:28;3.40;99.90
32334;DHT22;18810;53.040;8.850;2023-12-07T15:01:54;3.40;99.90
32334;DHT22;18810;53.040;8.850;2023-12-07T15:04:20;3.30;99.90
32334;DHT22;18810;53.040;8.850;2023-12-07T15:06:46;3.40;99.90
32334;DHT22;18810;53.040;8.850;2023-12-07T15:09:12;3.30;99.90
32334;DHT22;18810;53.040;8.850;2023-12-07T15:11:39;3.20;99.90
32334;DHT22;18810;53.040;8.850;2023-12-07T15:14:05;3.10;99.90
32334;DHT22;18810;53.040;8.850;2023-12-07T15:16:31;3.10;99.90
32334;DHT22;18810;53.040;8.850;2023-12-07T15:18:58;3.10;99.90
32334;DHT22;18810;53.040;8.850;2023-12-07T15:21:23;3.00;99.90
32334;DHT22;18810;53.040;8.850;2023-12-07T15:23:50;3.00;99.90
32334;DHT22;18810;53.040;8.850;2023-12-07T15:26:16;3.00;99.90
32334;DHT22;18810;53.040;8.850;2023-12-07T15:28:42;2.90;99.90
32334;DHT22;18810;53.040;8.850;2023-12-07T15:31:08;2.90;99.90
32334;DHT22;18810;53.040;8.850;2023-12-07T15:33:34;2.90;99.90
32334;DHT22;18810;53.040;8.850;2023-12-07T15:36:01;2.80;99.90
32334;DHT22;18810;53.040;8.850;2023-12-07T15:38:28;2.70;99.90
32334;DHT22;18810;53.040;8.850;2023-12-07T15:40:55;2.80;99.90
32334;DHT22;18810;53.040;8.850;2023-12-07T15:43:23;2.80;99.90
32334;DHT22;18810;53.040;8.850;2023-12-07T15:45:49;2.70;99.90
32334;DHT22;18810;53.040;8.850;2023-12-07T15:48:15;2.60;99.90
32334;DHT22;18810;53.040;8.850;2023-12-07T15:50:41;2.50;99.90
32334;DHT22;18810;53.040;8.850;2023-12-07T15:53:07;2.50;99.90
32334;DHT22;18810;53.040;8.850;2023-12-07T15:55:33;2.50;99.90
32334;DHT22;18810;53.040;8.850;2023-12-07T15:57:58;2.50;99.90
32334;DHT22;18810;53.040;8.850;2023-12-07T16:00:24;2.50;99.90
32334;DHT22;18810;53.040;8.850;2023-12-07T16:02:50;2.40;99.90
32334;DHT22;18810;53.040;8.850;2023-12-07T16:05:15;2.20;99.90
32334;DHT22;18810;53.040;8.850;2023-12-07T16:07:41;2.20;99.90
32334;DHT22;18810;53.040;8.850;2023-12-07T16:10:10;2.20;99.90
32334;DHT22;18810;53.040;8.850;2023-12-07T16:12:36;2.10;99.90
32334;DHT22;18810;53.040;8.850;2023-12-07T16:15:02;2.10;99.90